createdAt,value
2023-03-15T00:01:21.094Z,7.70
2023-03-15T00:03:51.810Z,6.50
2023-03-15T00:06:22.615Z,7.90
2023-03-15T00:08:53.757Z,8.20
2023-03-15T00:11:24.704Z,8.50
2023-03-15T00:13:55.401Z,8.20
2023-03-15T00:16:27.376Z,8.30
2023-03-15T00:18:58.924Z,8.40
2023-03-15T00:21:30.011Z,8.90
2023-03-15T00:24:00.851Z,8.10
2023-03-15T00:26:31.887Z,7.50
2023-03-15T00:29:02.625Z,8.20
2023-03-15T00:31:33.615Z,8.10
2023-03-15T00:34:05.067Z,8.40
2023-03-15T00:36:35.871Z,8.50
2023-03-15T00:39:06.755Z,9.40
2023-03-15T00:41:38.273Z,6.50
2023-03-15T00:44:09.124Z,4.80
2023-03-15T00:46:40.134Z,3.00
2023-03-15T00:49:11.981Z,2.30
2023-03-15T00:51:42.764Z,1.80
2023-03-15T00:54:15.008Z,1.90
2023-03-15T00:56:45.707Z,1.60
2023-03-15T00:59:16.432Z,1.80
2023-03-15T01:01:48.152Z,1.40
2023-03-15T01:04:18.892Z,1.30
2023-03-15T01:06:49.639Z,1.40
2023-03-15T01:09:20.347Z,1.30
2023-03-15T01:11:51.262Z,1.40
2023-03-15T01:14:22.069Z,1.60
2023-03-15T01:16:52.859Z,1.60
2023-03-15T01:19:24.746Z,1.40
2023-03-15T01:21:57.220Z,1.50
2023-03-15T01:24:29.521Z,1.70
2023-03-15T01:27:00.770Z,1.50
2023-03-15T01:29:32.306Z,1.60
2023-03-15T01:32:03.864Z,1.50
2023-03-15T01:34:35.309Z,1.10
2023-03-15T01:37:06.867Z,1.40
2023-03-15T01:39:43.658Z,1.50
2023-03-15T01:42:14.528Z,1.60
2023-03-15T01:45:00.085Z,1.60
2023-03-15T01:47:32.934Z,1.40
2023-03-15T01:50:08.129Z,1.60
2023-03-15T01:52:42.919Z,1.30
2023-03-15T01:55:22.469Z,1.40
2023-03-15T01:58:15.429Z,1.60
2023-03-15T02:00:47.691Z,1.90
2023-03-15T02:03:23.020Z,1.70
2023-03-15T02:05:58.713Z,1.90
2023-03-15T02:08:47.986Z,1.90
2023-03-15T02:11:21.765Z,1.90
2023-03-15T02:13:53.920Z,1.90
2023-03-15T02:16:26.310Z,1.80
2023-03-15T02:19:02.439Z,1.60
2023-03-15T02:21:47.771Z,1.90
2023-03-15T02:24:28.915Z,1.70
2023-03-15T02:27:00.104Z,2.10
2023-03-15T02:29:31.777Z,1.90
2023-03-15T02:32:04.667Z,1.80
2023-03-15T02:34:35.530Z,1.60
2023-03-15T02:37:07.014Z,2.00
2023-03-15T02:39:37.811Z,1.70
2023-03-15T02:42:08.872Z,1.80
2023-03-15T02:44:41.229Z,1.80
2023-03-15T02:47:16.617Z,1.70
2023-03-15T02:49:51.682Z,1.70
2023-03-15T02:52:23.168Z,1.90
2023-03-15T02:54:54.384Z,1.60
2023-03-15T02:57:25.263Z,1.90
2023-03-15T03:00:00.687Z,1.50
2023-03-15T03:02:31.564Z,1.60
2023-03-15T03:05:02.245Z,1.80
2023-03-15T03:07:33.976Z,1.80
2023-03-15T03:10:08.328Z,2.10
2023-03-15T03:12:47.830Z,1.80
2023-03-15T03:15:18.983Z,1.60
2023-03-15T03:17:49.914Z,2.00
2023-03-15T03:20:21.560Z,1.70
2023-03-15T03:22:52.345Z,1.90
2023-03-15T03:25:27.445Z,1.90
2023-03-15T03:30:28.268Z,2.20
2023-03-15T03:32:59.132Z,1.80
2023-03-15T03:35:29.850Z,2.00
2023-03-15T03:38:00.721Z,2.00
2023-03-15T03:40:38.877Z,1.90
2023-03-15T03:43:11.054Z,2.00
2023-03-15T03:45:41.762Z,1.70
2023-03-15T03:48:12.879Z,1.80
2023-03-15T03:50:43.609Z,2.10
2023-03-15T03:53:14.303Z,2.30
2023-03-15T03:55:46.548Z,2.00
2023-03-15T03:58:20.550Z,2.00
2023-03-15T04:00:58.279Z,2.40
2023-03-15T04:03:29.293Z,2.90
2023-03-15T04:06:09.525Z,3.30
2023-03-15T04:08:44.115Z,2.90
2023-03-15T04:11:18.767Z,2.90
2023-03-15T04:13:55.567Z,2.70
2023-03-15T04:16:26.401Z,3.30
2023-03-15T04:19:08.957Z,2.60
2023-03-15T04:21:47.683Z,3.10
2023-03-15T04:24:42.632Z,3.20
2023-03-15T04:27:28.640Z,2.90
2023-03-15T04:30:11.775Z,3.40
2023-03-15T04:32:42.646Z,2.90
2023-03-15T04:35:30.773Z,3.70
2023-03-15T04:38:35.580Z,3.30
2023-03-15T04:41:36.433Z,3.40
2023-03-15T04:44:16.835Z,3.00
2023-03-15T04:47:06.837Z,3.50
2023-03-15T04:49:55.396Z,3.40
2023-03-15T04:52:29.325Z,3.10
2023-03-15T04:55:06.614Z,3.20
2023-03-15T04:57:54.339Z,3.30
2023-03-15T05:00:48.187Z,2.70
2023-03-15T05:03:41.074Z,3.40
2023-03-15T05:06:23.676Z,2.90
2023-03-15T05:09:18.011Z,2.70
2023-03-15T05:12:08.133Z,2.80
2023-03-15T05:14:54.430Z,3.10
2023-03-15T05:17:46.576Z,2.50
2023-03-15T05:20:59.127Z,2.80
2023-03-15T05:23:42.852Z,3.00
2023-03-15T05:26:36.268Z,3.40
2023-03-15T05:29:26.187Z,2.80
2023-03-15T05:32:08.965Z,3.90
2023-03-15T05:34:55.614Z,3.70
2023-03-15T05:37:54.960Z,3.30
2023-03-15T05:41:04.449Z,3.60
2023-03-15T05:43:54.188Z,3.30
2023-03-15T05:46:34.077Z,3.70
2023-03-15T05:49:23.421Z,4.80
2023-03-15T05:52:03.972Z,4.40
2023-03-15T05:54:58.035Z,4.60
2023-03-15T05:57:47.556Z,4.20
2023-03-15T06:00:38.802Z,4.70
2023-03-15T06:03:12.471Z,3.80
2023-03-15T06:05:57.263Z,4.30
2023-03-15T06:08:35.789Z,4.80
2023-03-15T06:11:06.599Z,4.40
2023-03-15T06:13:38.010Z,4.30
2023-03-15T06:16:13.282Z,4.50
2023-03-15T06:18:47.416Z,6.50
2023-03-15T06:21:18.744Z,4.10
2023-03-15T06:23:49.597Z,4.00
2023-03-15T06:26:23.034Z,4.30
2023-03-15T06:28:55.379Z,3.80
2023-03-15T06:31:27.045Z,4.00
2023-03-15T06:34:05.052Z,3.90
2023-03-15T06:36:38.783Z,5.50
2023-03-15T06:39:11.830Z,3.80
2023-03-15T06:41:43.994Z,4.30
2023-03-15T06:44:20.450Z,4.50
2023-03-15T06:46:55.532Z,4.20
2023-03-15T06:49:26.682Z,4.00
2023-03-15T06:51:57.627Z,5.60
2023-03-15T06:54:28.514Z,5.00
2023-03-15T06:56:59.914Z,5.10
2023-03-15T06:59:30.815Z,5.70
2023-03-15T07:02:01.618Z,5.50
2023-03-15T07:04:32.484Z,5.10
2023-03-15T07:07:03.398Z,5.40
2023-03-15T07:09:34.164Z,5.20
2023-03-15T07:12:05.121Z,5.60
2023-03-15T07:14:37.827Z,4.90
2023-03-15T07:17:08.807Z,5.10
2023-03-15T07:19:50.210Z,5.10
2023-03-15T07:22:25.009Z,5.30
2023-03-15T07:24:55.858Z,5.60
2023-03-15T07:27:26.743Z,5.20
2023-03-15T07:29:57.615Z,5.70
2023-03-15T07:32:28.983Z,5.00
2023-03-15T07:35:00.795Z,5.70
2023-03-15T07:37:31.922Z,5.10
2023-03-15T07:40:09.839Z,5.10
2023-03-15T07:42:41.445Z,6.40
2023-03-15T07:45:13.577Z,5.60
2023-03-15T07:47:44.354Z,6.20
2023-03-15T07:50:17.322Z,5.90
2023-03-15T07:52:48.255Z,7.00
2023-03-15T07:55:19.217Z,7.50
2023-03-15T07:57:52.867Z,6.40
2023-03-15T08:00:25.489Z,7.90
2023-03-15T08:02:56.414Z,7.50
2023-03-15T08:05:29.126Z,6.80
2023-03-15T08:08:00.547Z,6.70
2023-03-15T08:10:31.777Z,6.70
2023-03-15T08:13:02.609Z,7.80
2023-03-15T08:15:33.419Z,6.90
2023-03-15T08:18:05.846Z,6.50
2023-03-15T08:20:37.314Z,6.30
2023-03-15T08:23:09.399Z,6.70
2023-03-15T08:25:41.856Z,7.00
2023-03-15T08:28:13.184Z,6.40
2023-03-15T08:30:44.167Z,6.30
2023-03-15T08:33:15.076Z,6.90
2023-03-15T08:35:46.114Z,6.20
2023-03-15T08:38:16.937Z,6.20
2023-03-15T08:40:47.954Z,6.50
2023-03-15T08:43:18.794Z,6.60
2023-03-15T08:46:00.586Z,6.00
2023-03-15T08:48:32.702Z,5.00
2023-03-15T08:51:08.050Z,5.50
2023-03-15T08:53:38.986Z,5.40
2023-03-15T08:56:10.583Z,5.40
2023-03-15T08:58:41.660Z,5.10
2023-03-15T09:01:13.795Z,4.40
2023-03-15T09:03:44.824Z,4.50
2023-03-15T09:06:15.757Z,4.90
2023-03-15T09:08:47.046Z,5.90
2023-03-15T09:11:17.920Z,4.60
2023-03-15T09:13:49.090Z,5.00
2023-03-15T09:16:20.043Z,4.50
2023-03-15T09:18:51.119Z,4.20
2023-03-15T09:21:22.018Z,3.80
2023-03-15T09:23:53.078Z,4.50
2023-03-15T09:26:24.269Z,4.50
2023-03-15T09:28:55.209Z,4.00
2023-03-15T09:31:26.362Z,5.20
2023-03-15T09:33:58.737Z,4.50
2023-03-15T09:36:29.630Z,4.40
2023-03-15T09:39:01.762Z,4.40
2023-03-15T09:41:44.495Z,4.30
2023-03-15T09:44:31.753Z,4.20
2023-03-15T09:47:16.198Z,4.20
2023-03-15T09:49:53.219Z,3.90
2023-03-15T09:52:33.240Z,3.70
2023-03-15T09:55:11.299Z,3.10
2023-03-15T09:57:48.669Z,3.30
2023-03-15T10:00:23.354Z,4.10
2023-03-15T10:03:01.694Z,4.30
2023-03-15T10:05:45.651Z,3.60
2023-03-15T10:08:39.870Z,4.00
2023-03-15T10:15:23.759Z,4.10
2023-03-15T10:18:11.609Z,3.50
2023-03-15T10:20:46.574Z,3.90
2023-03-15T10:23:21.348Z,3.80
2023-03-15T10:25:54.676Z,4.20
2023-03-15T10:28:31.267Z,4.20
2023-03-15T10:31:22.273Z,3.80
2023-03-15T10:34:00.734Z,4.20
2023-03-15T10:36:31.613Z,4.10
2023-03-15T10:39:03.625Z,4.20
2023-03-15T10:41:41.745Z,3.90
2023-03-15T10:44:17.235Z,4.70
2023-03-15T10:47:16.020Z,4.00
2023-03-15T10:49:56.661Z,4.10
2023-03-15T10:52:36.288Z,4.10
2023-03-15T10:55:21.841Z,4.00
2023-03-15T10:57:57.592Z,4.40
2023-03-15T11:00:32.976Z,4.10
2023-03-15T11:03:09.492Z,4.80
2023-03-15T11:05:47.087Z,4.40
2023-03-15T11:08:19.711Z,4.30
2023-03-15T11:10:58.755Z,3.60
2023-03-15T11:13:31.560Z,4.20
2023-03-15T11:16:09.923Z,3.90
2023-03-15T11:18:48.062Z,4.10
2023-03-15T11:21:21.747Z,4.50
2023-03-15T11:23:54.138Z,4.00
2023-03-15T11:26:32.681Z,4.80
2023-03-15T11:29:09.282Z,4.40
2023-03-15T11:31:40.724Z,5.20
2023-03-15T11:34:18.913Z,4.10
2023-03-15T11:37:07.271Z,4.50
2023-03-15T11:39:45.287Z,5.10
2023-03-15T11:42:24.915Z,4.60
2023-03-15T11:45:00.654Z,4.70
2023-03-15T11:47:41.271Z,6.20
2023-03-15T11:50:15.689Z,5.10
2023-03-15T11:52:51.468Z,4.40
2023-03-15T11:55:26.531Z,4.50
2023-03-15T11:57:58.732Z,6.00
2023-03-15T12:00:54.899Z,4.70
2023-03-15T12:03:43.486Z,6.80
2023-03-15T12:06:36.895Z,5.10
2023-03-15T12:09:42.138Z,4.90
2023-03-15T12:12:41.587Z,5.20
2023-03-15T12:15:49.954Z,4.90
2023-03-15T12:18:33.259Z,4.90
2023-03-15T12:21:15.054Z,4.10
2023-03-15T12:23:50.508Z,4.50
2023-03-15T12:26:32.037Z,4.70
2023-03-15T12:29:19.910Z,4.50
2023-03-15T12:32:07.599Z,4.40
2023-03-15T12:34:50.241Z,4.30
2023-03-15T12:37:24.901Z,4.80
2023-03-15T12:40:05.510Z,4.40
2023-03-15T12:43:04.304Z,4.60
2023-03-15T12:45:41.637Z,4.70
2023-03-15T12:48:24.456Z,4.50
2023-03-15T12:51:01.340Z,4.60
2023-03-15T12:53:43.555Z,4.50
2023-03-15T12:56:35.788Z,5.50
2023-03-15T12:59:30.116Z,5.00
2023-03-15T13:02:03.249Z,5.50
2023-03-15T13:04:34.400Z,5.10
2023-03-15T13:07:36.857Z,4.80
2023-03-15T13:10:37.103Z,4.70
2023-03-15T13:13:15.824Z,5.00
2023-03-15T13:15:56.098Z,5.00
2023-03-15T13:18:30.330Z,5.90
2023-03-15T13:21:13.526Z,5.40
2023-03-15T13:23:50.311Z,4.80
2023-03-15T13:26:40.317Z,5.00
2023-03-15T13:29:17.687Z,5.30
2023-03-15T13:32:00.626Z,5.90
2023-03-15T13:34:34.681Z,5.40
2023-03-15T13:37:05.591Z,4.80
2023-03-15T13:39:37.344Z,4.30
2023-03-15T13:42:19.261Z,4.20
2023-03-15T13:44:49.970Z,3.90
2023-03-15T13:47:23.247Z,3.40
2023-03-15T13:49:57.606Z,3.70
2023-03-15T13:52:28.481Z,3.50
2023-03-15T13:55:00.667Z,4.20
2023-03-15T13:57:32.110Z,4.60
2023-03-15T14:00:10.870Z,4.60
2023-03-15T14:02:49.678Z,3.70
2023-03-15T14:05:27.379Z,4.30
2023-03-15T14:08:04.135Z,4.00
2023-03-15T14:10:37.050Z,5.30
2023-03-15T14:13:25.774Z,6.90
2023-03-15T14:16:01.752Z,5.00
2023-03-15T14:18:36.827Z,4.80
2023-03-15T14:21:14.768Z,5.50
2023-03-15T14:23:47.761Z,5.30
2023-03-15T14:26:22.480Z,5.70
2023-03-15T14:28:57.502Z,5.30
2023-03-15T14:31:32.458Z,5.10
2023-03-15T14:34:17.000Z,5.20
2023-03-15T14:36:48.639Z,4.60
2023-03-15T14:39:26.139Z,4.50
2023-03-15T14:41:57.188Z,4.60
2023-03-15T14:44:28.174Z,5.00
2023-03-15T14:46:59.181Z,5.30
2023-03-15T14:49:30.505Z,4.80
2023-03-15T14:52:03.931Z,5.00
2023-03-15T14:54:35.493Z,5.40
2023-03-15T14:57:07.500Z,4.80
2023-03-15T14:59:38.230Z,4.80
2023-03-15T15:02:15.135Z,5.00
2023-03-15T15:04:48.239Z,4.30
2023-03-15T15:07:20.687Z,4.60
2023-03-15T15:09:52.493Z,3.70
2023-03-15T15:12:23.214Z,4.20
2023-03-15T15:14:53.988Z,4.10
2023-03-15T15:17:24.724Z,4.80
2023-03-15T15:19:55.441Z,4.40
2023-03-15T15:22:26.202Z,4.50
2023-03-15T15:24:59.899Z,4.40
2023-03-15T15:27:30.619Z,4.50
2023-03-15T15:30:01.348Z,5.50
2023-03-15T15:32:34.025Z,4.70
2023-03-15T15:35:05.155Z,5.10
2023-03-15T15:37:36.090Z,4.90
2023-03-15T15:40:11.948Z,4.40
2023-03-15T15:42:42.730Z,5.10
2023-03-15T15:45:16.768Z,4.50
2023-03-15T15:47:48.170Z,4.90
2023-03-15T15:50:21.180Z,4.30
2023-03-15T15:52:53.911Z,4.80
2023-03-15T15:55:28.676Z,5.20
2023-03-15T15:57:59.704Z,5.10
2023-03-15T16:00:31.449Z,5.40
2023-03-15T16:03:02.416Z,4.40
2023-03-15T16:05:33.774Z,4.30
2023-03-15T16:08:06.708Z,4.50
2023-03-15T16:10:38.128Z,4.20
2023-03-15T16:13:11.380Z,4.30
2023-03-15T16:15:42.404Z,4.30
2023-03-15T16:18:14.105Z,3.50
2023-03-15T16:20:45.296Z,4.40
2023-03-15T16:23:22.042Z,3.70
2023-03-15T16:25:55.624Z,4.10
2023-03-15T16:28:27.086Z,3.60
2023-03-15T16:30:58.427Z,4.00
2023-03-15T16:33:29.128Z,3.40
2023-03-15T16:35:59.963Z,4.20
2023-03-15T16:38:34.116Z,4.40
2023-03-15T16:41:05.126Z,5.10
2023-03-15T16:43:36.546Z,4.30
2023-03-15T16:46:15.270Z,4.30
2023-03-15T16:48:46.580Z,4.50
2023-03-15T16:51:18.321Z,4.50
2023-03-15T16:53:49.358Z,4.20
2023-03-15T16:56:20.135Z,4.60
2023-03-15T16:58:57.368Z,5.30
2023-03-15T17:01:28.195Z,4.00
2023-03-15T17:03:59.398Z,4.00
2023-03-15T17:06:31.605Z,4.50
2023-03-15T17:09:05.057Z,4.80
2023-03-15T17:11:44.747Z,4.80
2023-03-15T17:14:19.369Z,4.00
2023-03-15T17:16:50.204Z,4.10
2023-03-15T17:19:24.383Z,4.50
2023-03-15T17:21:55.694Z,4.60
2023-03-15T17:24:28.105Z,4.90
2023-03-15T17:26:58.957Z,5.20
2023-03-15T17:29:30.002Z,5.40
2023-03-15T17:32:00.806Z,4.90
2023-03-15T17:34:35.779Z,5.90
2023-03-15T17:37:07.721Z,5.20
2023-03-15T17:39:40.484Z,5.10
2023-03-15T17:42:15.586Z,5.40
2023-03-15T17:44:46.562Z,5.80
2023-03-15T17:47:17.465Z,5.60
2023-03-15T17:49:48.388Z,4.50
2023-03-15T17:52:20.930Z,5.40
2023-03-15T17:54:52.006Z,5.60
2023-03-15T17:57:22.868Z,5.00
2023-03-15T17:59:53.775Z,5.90
2023-03-15T18:02:32.762Z,5.90
2023-03-15T18:05:04.596Z,5.90
2023-03-15T18:07:36.097Z,6.10
2023-03-15T18:10:08.604Z,20.30
2023-03-15T18:12:39.703Z,11.30
2023-03-15T18:15:15.183Z,8.10
2023-03-15T18:17:46.645Z,6.70
2023-03-15T18:20:19.241Z,6.70
2023-03-15T18:22:50.665Z,5.90
2023-03-15T18:25:27.062Z,6.60
2023-03-15T18:27:58.206Z,6.90
2023-03-15T18:30:31.733Z,6.80
2023-03-15T18:33:04.004Z,7.20
2023-03-15T18:35:37.077Z,7.80
2023-03-15T18:38:25.288Z,6.90
2023-03-15T18:40:57.596Z,7.50
2023-03-15T18:43:29.677Z,7.80
2023-03-15T18:46:00.942Z,8.00
2023-03-15T18:48:40.616Z,9.00
2023-03-15T18:58:57.202Z,8.80
2023-03-15T19:01:29.027Z,8.70
2023-03-15T19:04:28.612Z,9.50
2023-03-15T19:06:59.729Z,11.00
2023-03-15T19:09:33.299Z,10.60
2023-03-15T19:12:04.715Z,10.80
2023-03-15T19:14:38.887Z,9.30
2023-03-15T19:17:09.974Z,9.70
2023-03-15T19:19:41.251Z,10.70
2023-03-15T19:22:12.479Z,11.20
2023-03-15T19:24:43.502Z,10.90
2023-03-15T19:27:15.527Z,11.20
2023-03-15T19:29:47.210Z,10.90
2023-03-15T19:32:18.537Z,11.10
2023-03-15T19:34:49.722Z,10.80
2023-03-15T19:37:21.745Z,11.20
2023-03-15T19:39:53.815Z,9.90
2023-03-15T19:42:24.978Z,10.50
2023-03-15T19:44:56.107Z,9.80
2023-03-15T19:47:27.259Z,9.90
2023-03-15T19:50:21.966Z,9.60
2023-03-15T19:52:54.721Z,9.90
2023-03-15T19:55:30.383Z,9.50
2023-03-15T19:58:05.301Z,10.50
2023-03-15T20:00:36.611Z,8.50
2023-03-15T20:03:07.592Z,8.30
2023-03-15T20:05:38.734Z,9.20
2023-03-15T20:08:10.531Z,9.40
2023-03-15T20:10:41.651Z,9.00
2023-03-15T20:13:14.916Z,9.30
2023-03-15T20:15:46.138Z,9.70
2023-03-15T20:18:18.537Z,9.20
2023-03-15T20:20:49.332Z,10.00
2023-03-15T20:23:20.232Z,15.30
2023-03-15T20:25:51.625Z,21.20
2023-03-15T20:28:22.930Z,13.40
2023-03-15T20:30:54.062Z,10.90
2023-03-15T20:33:25.775Z,9.20
2023-03-15T20:35:56.647Z,9.00
2023-03-15T20:38:28.428Z,9.60
2023-03-15T20:40:59.566Z,9.40
2023-03-15T20:43:31.380Z,9.80
2023-03-15T20:46:04.391Z,9.60
2023-03-15T20:48:37.807Z,10.70
2023-03-15T20:51:08.894Z,10.30
2023-03-15T20:53:39.799Z,9.00
2023-03-15T20:56:11.337Z,10.30
2023-03-15T20:58:42.569Z,9.80
2023-03-15T21:01:16.871Z,10.40
2023-03-15T21:03:48.592Z,9.90
2023-03-15T21:06:19.680Z,10.20
2023-03-15T21:08:50.681Z,10.00
2023-03-15T21:11:21.668Z,9.70
2023-03-15T21:13:53.217Z,10.00
2023-03-15T21:16:26.060Z,9.40
2023-03-15T21:19:20.352Z,10.90
2023-03-15T21:21:51.266Z,11.30
2023-03-15T21:24:22.307Z,10.30
2023-03-15T21:26:54.913Z,9.90
2023-03-15T21:29:25.849Z,10.10
2023-03-15T21:31:56.827Z,9.90
2023-03-15T21:34:28.678Z,12.80
2023-03-15T21:36:59.548Z,11.60
2023-03-15T21:39:30.522Z,11.50
2023-03-15T21:42:01.685Z,10.10
2023-03-15T21:44:59.457Z,9.90
2023-03-15T21:47:33.561Z,9.60
2023-03-15T21:50:05.562Z,8.40
2023-03-15T21:52:36.495Z,9.70
2023-03-15T21:55:09.106Z,10.60
2023-03-15T21:57:47.357Z,11.60
2023-03-15T22:00:20.486Z,11.10
2023-03-15T22:02:55.634Z,10.60
2023-03-15T22:05:27.064Z,10.80
2023-03-15T22:07:57.972Z,11.60
2023-03-15T22:10:28.936Z,11.70
2023-03-15T22:12:59.755Z,11.30
2023-03-15T22:15:31.026Z,12.60
2023-03-15T22:18:02.341Z,13.10
2023-03-15T22:20:33.933Z,11.50
2023-03-15T22:23:05.097Z,11.50
2023-03-15T22:25:38.722Z,12.60
2023-03-15T22:28:09.881Z,13.60
2023-03-15T22:30:41.044Z,14.00
2023-03-15T22:33:11.967Z,12.40
2023-03-15T22:35:42.886Z,13.60
2023-03-15T22:38:13.672Z,12.00
2023-03-15T22:40:44.460Z,12.30
2023-03-15T22:43:15.116Z,14.30
2023-03-15T22:45:46.427Z,13.30
2023-03-15T22:48:17.384Z,14.10
2023-03-15T22:50:48.274Z,14.50
2023-03-15T22:53:19.369Z,14.10
2023-03-15T22:55:50.069Z,15.10
2023-03-15T22:58:20.919Z,13.40
2023-03-15T23:00:52.000Z,13.80
2023-03-15T23:03:22.863Z,13.60
2023-03-15T23:05:53.783Z,14.80
2023-03-15T23:08:24.869Z,14.50
2023-03-15T23:10:57.674Z,14.50
2023-03-15T23:13:28.467Z,16.30
2023-03-15T23:15:59.269Z,15.20
2023-03-15T23:18:34.253Z,14.80
2023-03-15T23:21:10.229Z,14.90
2023-03-15T23:23:43.905Z,15.30
2023-03-15T23:26:16.739Z,15.20
2023-03-15T23:28:47.953Z,16.80
2023-03-15T23:31:19.494Z,19.60
2023-03-15T23:33:50.305Z,20.40
2023-03-15T23:36:21.270Z,18.10
2023-03-15T23:38:53.389Z,16.80
2023-03-15T23:41:24.496Z,15.90
2023-03-15T23:43:55.373Z,15.30
2023-03-15T23:46:26.739Z,15.80
2023-03-15T23:48:57.692Z,15.10
2023-03-15T23:51:28.676Z,15.70
2023-03-15T23:53:59.468Z,16.70
2023-03-15T23:56:30.988Z,15.60
2023-03-15T23:59:01.935Z,13.60
